Grand Ruby — 3EIU3 — position and weather

sailwx.info

Track history (hours):
 
Tides and Currents Weather Stations Pressure Air Temp Water Temp Dewpoint Dewpoint Depression Visibility Wind Speed Wind Dir Waves Ship Positions

Grand Ruby

Last reported at 2017-Jul-05 05:05 UTC. Time now 2017-Jul-25 18:43 UTC.
Position S 38°14' E 149°09'.
Warning: this ship's position is 20 days out of date.

Length 199 m; draft 8.1 m.

Type: Cargo ship. MMSI: 372399000.

Date/timePositionNaut miles runAvg speedWind from/ knotsBaromVisibWave heightAir tempDewpointWater temp
2017-Jul-05 05:05S 38°14' E 149°09'217.0
2017-Jul-05 04:56S 38°15' E 149°07'817.7
2017-Jul-05 04:30S 38°20' E 148°59'1017.8
2017-Jul-05 03:56S 38°26' E 148°49'18413.2
2017-Jul-04 13:58S 38°12' E 144°55'1118.0
2017-Jul-04 13:22S 38°01' E 144°55'615.8
2017-Jul-04 13:00S 37°55' E 144°56'5 0.2
2017-Jul-03 17:31S 37°51' E 144°54'0 0.0
2017-Jul-03 17:25S 37°51' E 144°54'0 0.0
2017-Jul-03 15:16S 37°51' E 144°54'0 0.0
2017-Jul-03 14:55S 37°51' E 144°54'0 0.0
2017-Jul-03 13:58S 37°51' E 144°54'0 0.0
2017-Jul-03 12:13S 37°51' E 144°54'0 0.0
2017-Jul-03 11:55S 37°51' E 144°54'0 0.0
2017-Jul-03 11:10S 37°51' E 144°54'0 0.0
2017-Jul-02 17:22S 37°51' E 144°54'0 0.0
2017-Jul-02 16:58S 37°51' E 144°54'0 0.0
2017-Jul-02 16:10S 37°51' E 144°54'0 0.0
2017-Jul-02 15:49S 37°51' E 144°54'0 0.0
2017-Jul-02 15:28S 37°51' E 144°54'0 0.0
2017-Jul-02 14:46S 37°51' E 144°54'0 0.0
2017-Jul-02 12:52S 37°51' E 144°54'0 0.0
2017-Jul-02 09:58S 37°51' E 144°54'0 0.0
2017-Jul-02 08:40S 37°51' E 144°54'0 0.0
2017-Jul-01 23:01S 37°51' E 144°54'0 0.0
2017-Jul-01 22:55S 37°51' E 144°54'0 0.0
2017-Jul-01 21:52S 37°51' E 144°54'0 0.0
2017-Jul-01 19:58S 37°51' E 144°54'0 0.0
2017-Jul-01 18:22S 37°51' E 144°54'0 0.0
2017-Jul-01 17:49S 37°51' E 144°54'0 0.0
2017-Jul-01 17:28S 37°51' E 144°54'0 0.0
2017-Jul-01 16:16S 37°51' E 144°54'0 0.0
2017-Jul-01 15:52S 37°51' E 144°54'0 0.0
2017-Jul-01 15:25S 37°51' E 144°54'0 0.0
2017-Jul-01 14:58S 37°51' E 144°54'0 0.0
2017-Jul-01 11:04S 37°51' E 144°54'0 0.0
2017-Jul-01 10:43S 37°51' E 144°54'0 0.0
2017-Jul-01 08:22S 37°51' E 144°54'0 1.2
2017-Jul-01 07:57S 37°51' E 144°55'4 8.7
2017-Jul-01 07:30S 37°55' E 144°56'816.2
2017-Jul-01 07:00S 38°03' E 144°56'177 8.3
2017-Jun-30 09:36S 38°28' E 148°39'316.2
2017-Jun-30 09:26S 38°27' E 148°42'816.2
2017-Jun-30 08:57S 38°22' E 148°50'715.9
2017-Jun-30 08:29S 38°18' E 148°57'815.7
2017-Jun-30 08:00S 38°14' E 149°05'815.3
2017-Jun-30 07:29S 38°09' E 149°13'331 7.6
2017-Jun-28 12:01S 33°11' E 152°10'918.7
2017-Jun-28 11:31S 33°03' E 152°16'918.4
2017-Jun-28 11:01S 32°55' E 152°22'918.3
2017-Jun-28 10:31S 32°47' E 152°28'917.7
2017-Jun-28 10:01S 32°39' E 152°32'917.6
2017-Jun-28 09:31S 32°32' E 152°38'917.8
2017-Jun-28 09:01S 32°24' E 152°43'28718.2
2017-Jun-27 17:13S 27°41' E 153°42'619.8
2017-Jun-27 16:55S 27°36' E 153°41'1119.4
2017-Jun-27 16:22S 27°25' E 153°41'719.1
2017-Jun-27 16:00S 27°18' E 153°41'918.7
2017-Jun-27 15:31S 27°09' E 153°38'918.6
2017-Jun-27 15:00S 26°60' E 153°36'917.8
2017-Jun-27 14:30S 26°53' E 153°30'1717.4
2017-Jun-27 13:31S 26°44' E 153°13'2 4.6
2017-Jun-27 13:00S 26°45' E 153°11'714.5
2017-Jun-27 12:30S 26°52' E 153°10'815.9
2017-Jun-27 12:00S 26°59' E 153°14'714.2
2017-Jun-27 11:30S 27°05' E 153°19'714.1
2017-Jun-27 11:00S 27°12' E 153°20'714.8
2017-Jun-27 10:30S 27°17' E 153°14'612.9
2017-Jun-27 10:00S 27°22' E 153°10'0 0.2
2017-Jun-27 07:59S 27°23' E 153°10'0 0.0
2017-Jun-27 07:26S 27°23' E 153°10'0 0.0
2017-Jun-27 06:59S 27°23' E 153°10'0 0.0
2017-Jun-27 06:29S 27°23' E 153°10'0 0.0
2017-Jun-27 05:59S 27°23' E 153°10'0 0.0
2017-Jun-27 05:29S 27°23' E 153°10'0 0.0
2017-Jun-27 04:59S 27°23' E 153°10'0 0.0
2017-Jun-27 04:29S 27°23' E 153°10'0 0.0
2017-Jun-27 03:59S 27°23' E 153°10'0 0.0
2017-Jun-27 03:29S 27°23' E 153°10'0 0.0
2017-Jun-27 02:59S 27°23' E 153°10'0 0.0
2017-Jun-27 02:29S 27°23' E 153°10'0 0.0
2017-Jun-27 01:59S 27°23' E 153°10'0 0.0
2017-Jun-27 01:29S 27°23' E 153°10'0 0.0
2017-Jun-27 00:59S 27°23' E 153°10'0 0.0
2017-Jun-27 00:29S 27°23' E 153°10'0 0.0
2017-Jun-26 23:59S 27°23' E 153°10'0 0.0
2017-Jun-26 23:29S 27°23' E 153°10'0 0.0
2017-Jun-26 22:59S 27°23' E 153°10'0 0.0
2017-Jun-26 22:29S 27°23' E 153°10'0 0.0
2017-Jun-26 21:59S 27°23' E 153°10'0 0.0
2017-Jun-26 21:29S 27°23' E 153°10'0 0.0
2017-Jun-26 20:56S 27°23' E 153°10'0 0.0
2017-Jun-26 19:51S 27°23' E 153°10'0 0.4
2017-Jun-26 19:30S 27°23' E 153°10'2 4.3
2017-Jun-26 19:00S 27°21' E 153°11'4 7.9
2017-Jun-26 18:30S 27°17' E 153°14'510.9
2017-Jun-26 18:00S 27°14' E 153°19'510.4
2017-Jun-26 17:30S 27°10' E 153°21'713.9
2017-Jun-26 17:01S 27°03' E 153°18'713.6
2017-Jun-26 16:31S 26°58' E 153°13'714.9
2017-Jun-26 16:01S 26°51' E 153°09'611.0
2017-Jun-26 15:30S 26°46' E 153°11'4 7.6
2017-Jun-26 15:00S 26°42' E 153°12'3 5.1
2017-Jun-26 14:30S 26°41' E 153°14'  
Track history (hours):
 
Tides and Currents Weather Stations Pressure Air Temp Water Temp Dewpoint Dewpoint Depression Visibility Wind Speed Wind Dir Waves Ship Positions

Grand Ruby

Last reported at 2017-Jul-05 05:05 UTC. Time now 2017-Jul-25 18:43 UTC.
Position S 38°14' E 149°09'.
Warning: this ship's position is 20 days out of date.

Length 199 m; draft 8.1 m.

Type: Cargo ship. MMSI: 372399000.

Date/timePositionNaut miles runAvg speedWind from/ knotsBaromVisibWave heightAir tempDewpointWater temp
2017-Jul-05 05:05S 38°14' E 149°09'217.0
2017-Jul-05 04:56S 38°15' E 149°07'817.7
2017-Jul-05 04:30S 38°20' E 148°59'1017.8
2017-Jul-05 03:56S 38°26' E 148°49'18413.2
2017-Jul-04 13:58S 38°12' E 144°55'1118.0
2017-Jul-04 13:22S 38°01' E 144°55'615.8
2017-Jul-04 13:00S 37°55' E 144°56'5 0.2
2017-Jul-03 17:31S 37°51' E 144°54'0 0.0
2017-Jul-03 17:25S 37°51' E 144°54'0 0.0
2017-Jul-03 15:16S 37°51' E 144°54'0 0.0
2017-Jul-03 14:55S 37°51' E 144°54'0 0.0
2017-Jul-03 13:58S 37°51' E 144°54'0 0.0
2017-Jul-03 12:13S 37°51' E 144°54'0 0.0
2017-Jul-03 11:55S 37°51' E 144°54'0 0.0
2017-Jul-03 11:10S 37°51' E 144°54'0 0.0
2017-Jul-02 17:22S 37°51' E 144°54'0 0.0
2017-Jul-02 16:58S 37°51' E 144°54'0 0.0
2017-Jul-02 16:10S 37°51' E 144°54'0 0.0
2017-Jul-02 15:49S 37°51' E 144°54'0 0.0
2017-Jul-02 15:28S 37°51' E 144°54'0 0.0
2017-Jul-02 14:46S 37°51' E 144°54'0 0.0
2017-Jul-02 12:52S 37°51' E 144°54'0 0.0
2017-Jul-02 09:58S 37°51' E 144°54'0 0.0
2017-Jul-02 08:40S 37°51' E 144°54'0 0.0
2017-Jul-01 23:01S 37°51' E 144°54'0 0.0
2017-Jul-01 22:55S 37°51' E 144°54'0 0.0
2017-Jul-01 21:52S 37°51' E 144°54'0 0.0
2017-Jul-01 19:58S 37°51' E 144°54'0 0.0
2017-Jul-01 18:22S 37°51' E 144°54'0 0.0
2017-Jul-01 17:49S 37°51' E 144°54'0 0.0
2017-Jul-01 17:28S 37°51' E 144°54'0 0.0
2017-Jul-01 16:16S 37°51' E 144°54'0 0.0
2017-Jul-01 15:52S 37°51' E 144°54'0 0.0
2017-Jul-01 15:25S 37°51' E 144°54'0 0.0
2017-Jul-01 14:58S 37°51' E 144°54'0 0.0
2017-Jul-01 11:04S 37°51' E 144°54'0 0.0
2017-Jul-01 10:43S 37°51' E 144°54'0 0.0
2017-Jul-01 08:22S 37°51' E 144°54'0 1.2
2017-Jul-01 07:57S 37°51' E 144°55'4 8.7
2017-Jul-01 07:30S 37°55' E 144°56'816.2
2017-Jul-01 07:00S 38°03' E 144°56'177 8.3
2017-Jun-30 09:36S 38°28' E 148°39'316.2
2017-Jun-30 09:26S 38°27' E 148°42'816.2
2017-Jun-30 08:57S 38°22' E 148°50'715.9
2017-Jun-30 08:29S 38°18' E 148°57'815.7
2017-Jun-30 08:00S 38°14' E 149°05'815.3
2017-Jun-30 07:29S 38°09' E 149°13'331 7.6
2017-Jun-28 12:01S 33°11' E 152°10'918.7
2017-Jun-28 11:31S 33°03' E 152°16'918.4
2017-Jun-28 11:01S 32°55' E 152°22'918.3
2017-Jun-28 10:31S 32°47' E 152°28'917.7
2017-Jun-28 10:01S 32°39' E 152°32'917.6
2017-Jun-28 09:31S 32°32' E 152°38'917.8
2017-Jun-28 09:01S 32°24' E 152°43'28718.2
2017-Jun-27 17:13S 27°41' E 153°42'619.8
2017-Jun-27 16:55S 27°36' E 153°41'1119.4
2017-Jun-27 16:22S 27°25' E 153°41'719.1
2017-Jun-27 16:00S 27°18' E 153°41'918.7
2017-Jun-27 15:31S 27°09' E 153°38'918.6
2017-Jun-27 15:00S 26°60' E 153°36'917.8
2017-Jun-27 14:30S 26°53' E 153°30'1717.4
2017-Jun-27 13:31S 26°44' E 153°13'2 4.6
2017-Jun-27 13:00S 26°45' E 153°11'714.5
2017-Jun-27 12:30S 26°52' E 153°10'815.9
2017-Jun-27 12:00S 26°59' E 153°14'714.2
2017-Jun-27 11:30S 27°05' E 153°19'714.1
2017-Jun-27 11:00S 27°12' E 153°20'714.8
2017-Jun-27 10:30S 27°17' E 153°14'612.9
2017-Jun-27 10:00S 27°22' E 153°10'0 0.2
2017-Jun-27 07:59S 27°23' E 153°10'0 0.0
2017-Jun-27 07:26S 27°23' E 153°10'0 0.0
2017-Jun-27 06:59S 27°23' E 153°10'0 0.0
2017-Jun-27 06:29S 27°23' E 153°10'0 0.0
2017-Jun-27 05:59S 27°23' E 153°10'0 0.0
2017-Jun-27 05:29S 27°23' E 153°10'0 0.0
2017-Jun-27 04:59S 27°23' E 153°10'0 0.0
2017-Jun-27 04:29S 27°23' E 153°10'0 0.0
2017-Jun-27 03:59S 27°23' E 153°10'0 0.0
2017-Jun-27 03:29S 27°23' E 153°10'0 0.0
2017-Jun-27 02:59S 27°23' E 153°10'0 0.0
2017-Jun-27 02:29S 27°23' E 153°10'0 0.0
2017-Jun-27 01:59S 27°23' E 153°10'0 0.0
2017-Jun-27 01:29S 27°23' E 153°10'0 0.0
2017-Jun-27 00:59S 27°23' E 153°10'0 0.0
2017-Jun-27 00:29S 27°23' E 153°10'0 0.0
2017-Jun-26 23:59S 27°23' E 153°10'0 0.0
2017-Jun-26 23:29S 27°23' E 153°10'0 0.0
2017-Jun-26 22:59S 27°23' E 153°10'0 0.0
2017-Jun-26 22:29S 27°23' E 153°10'0 0.0
2017-Jun-26 21:59S 27°23' E 153°10'0 0.0
2017-Jun-26 21:29S 27°23' E 153°10'0 0.0
2017-Jun-26 20:56S 27°23' E 153°10'0 0.0
2017-Jun-26 19:51S 27°23' E 153°10'0 0.4
2017-Jun-26 19:30S 27°23' E 153°10'2 4.3
2017-Jun-26 19:00S 27°21' E 153°11'4 7.9
2017-Jun-26 18:30S 27°17' E 153°14'510.9
2017-Jun-26 18:00S 27°14' E 153°19'510.4
2017-Jun-26 17:30S 27°10' E 153°21'713.9
2017-Jun-26 17:01S 27°03' E 153°18'713.6
2017-Jun-26 16:31S 26°58' E 153°13'714.9
2017-Jun-26 16:01S 26°51' E 153°09'611.0
2017-Jun-26 15:30S 26°46' E 153°11'4 7.6
2017-Jun-26 15:00S 26°42' E 153°12'3 5.1
2017-Jun-26 14:30S 26°41' E 153°14'  

Dump ship's entire track history